createdAt,value
2023-02-20T00:00:45.805Z,96830.00
2023-02-20T00:01:46.842Z,96834.00
2023-02-20T00:02:45.917Z,96836.00
2023-02-20T00:03:46.926Z,96832.00
2023-02-20T00:04:45.912Z,96832.00
2023-02-20T00:05:46.947Z,96832.00
2023-02-20T00:06:46.993Z,96826.00
2023-02-20T00:07:47.007Z,96830.00
2023-02-20T00:08:47.040Z,96828.00
2023-02-20T00:09:47.086Z,96826.00
2023-02-20T00:10:47.085Z,96823.00
2023-02-20T00:11:47.186Z,96824.00
2023-02-20T00:12:47.163Z,96826.00
2023-02-20T00:13:47.232Z,96828.00
2023-02-20T00:14:46.204Z,96826.00
2023-02-20T00:15:47.288Z,96828.00
2023-02-20T00:16:46.278Z,96828.00
2023-02-20T00:17:46.304Z,96832.00
2023-02-20T00:18:47.335Z,96832.00
2023-02-20T00:19:46.365Z,96834.00
2023-02-20T00:20:46.392Z,96834.00
2023-02-20T00:21:47.428Z,96838.00
2023-02-20T00:22:46.447Z,96838.00
2023-02-20T00:23:47.478Z,96838.00
2023-02-20T00:24:47.510Z,96836.00
2023-02-20T00:25:47.528Z,96838.00
2023-02-20T00:26:47.562Z,96836.00
2023-02-20T00:27:47.585Z,96838.00
2023-02-20T00:28:47.620Z,96838.00
2023-02-20T00:29:46.649Z,96840.00
2023-02-20T00:30:47.678Z,96840.00
2023-02-20T00:31:47.701Z,96838.00
2023-02-20T00:32:47.743Z,96838.00
2023-02-20T00:33:46.776Z,96838.00
2023-02-20T00:34:47.768Z,96832.00
2023-02-20T00:35:46.809Z,96832.00
2023-02-20T00:36:46.840Z,96836.00
2023-02-20T00:37:47.885Z,96832.00
2023-02-20T00:38:46.916Z,96830.00
2023-02-20T00:39:47.935Z,96832.00
2023-02-20T00:40:47.955Z,96832.00
2023-02-20T00:41:46.988Z,96832.00
2023-02-20T00:42:48.015Z,96834.00
2023-02-20T00:43:47.073Z,96834.00
2023-02-20T00:44:48.083Z,96838.00
2023-02-20T00:45:48.113Z,96842.00
2023-02-20T00:46:48.202Z,96842.00
2023-02-20T00:47:48.187Z,96844.00
2023-02-20T00:48:48.224Z,96848.00
2023-02-20T00:49:47.234Z,96852.00
2023-02-20T00:50:47.253Z,96852.00
2023-02-20T00:51:48.281Z,96852.00
2023-02-20T00:52:48.319Z,96852.00
2023-02-20T00:53:48.356Z,96852.00
2023-02-20T00:54:48.358Z,96854.00
2023-02-20T00:55:48.418Z,96852.00
2023-02-20T00:56:47.429Z,96850.00
2023-02-20T00:57:48.429Z,96852.00
2023-02-20T00:58:48.476Z,96856.00
2023-02-20T00:59:48.473Z,96856.00
2023-02-20T01:00:47.516Z,96856.00
2023-02-20T01:01:48.552Z,96858.00
2023-02-20T01:02:47.587Z,96856.00
2023-02-20T01:03:48.590Z,96854.00
2023-02-20T01:04:48.609Z,96856.00
2023-02-20T01:05:48.642Z,96858.00
2023-02-20T01:06:47.669Z,96854.00
2023-02-20T01:07:48.702Z,96858.00
2023-02-20T01:08:47.736Z,96856.00
2023-02-20T01:09:48.769Z,96858.00
2023-02-20T01:10:48.804Z,96858.00
2023-02-20T01:11:47.825Z,96856.00
2023-02-20T01:12:48.843Z,96854.00
2023-02-20T01:13:48.876Z,96854.00
2023-02-20T01:14:47.906Z,96854.00
2023-02-20T01:15:48.970Z,96854.00
2023-02-20T01:16:48.953Z,96856.00
2023-02-20T01:17:48.989Z,96856.00
2023-02-20T01:18:49.022Z,96854.00
2023-02-20T01:19:48.054Z,96852.00
2023-02-20T01:20:48.076Z,96848.00
2023-02-20T01:21:48.114Z,96846.00
2023-02-20T01:22:48.147Z,96848.00
2023-02-20T01:23:49.195Z,96852.00
2023-02-20T01:24:48.206Z,96858.00
2023-02-20T01:25:49.247Z,96862.00
2023-02-20T01:26:49.270Z,96862.00
2023-02-20T01:27:48.303Z,96866.00
2023-02-20T01:28:48.346Z,96862.00
2023-02-20T01:29:49.384Z,96858.00
2023-02-20T01:30:49.416Z,96856.00
2023-02-20T01:31:49.606Z,96856.00
2023-02-20T01:32:49.463Z,96852.00
2023-02-20T01:33:49.496Z,96848.00
2023-02-20T01:34:49.537Z,96848.00
2023-02-20T01:35:49.566Z,96848.00
2023-02-20T01:36:49.589Z,96854.00
2023-02-20T01:37:49.621Z,96858.00
2023-02-20T01:38:49.647Z,96858.00
2023-02-20T01:39:48.697Z,96856.00
2023-02-20T01:40:49.716Z,96856.00
2023-02-20T01:41:49.750Z,96852.00
2023-02-20T01:42:48.778Z,96846.00
2023-02-20T01:43:49.816Z,96844.00
2023-02-20T01:44:48.842Z,96846.00
2023-02-20T01:45:49.868Z,96848.00
2023-02-20T01:46:49.933Z,96852.00
2023-02-20T01:47:49.924Z,96856.00
2023-02-20T01:48:49.956Z,96856.00
2023-02-20T01:49:49.994Z,96856.00
2023-02-20T01:50:49.026Z,96848.00
2023-02-20T01:51:50.046Z,96846.00
2023-02-20T01:52:50.073Z,96842.00
2023-02-20T01:53:50.096Z,96836.00
2023-02-20T01:54:50.136Z,96840.00
2023-02-20T01:55:50.139Z,96838.00
2023-02-20T01:56:50.195Z,96840.00
2023-02-20T01:57:49.194Z,96840.00
2023-02-20T01:58:49.221Z,96840.00
2023-02-20T01:59:49.250Z,96840.00
2023-02-20T02:00:50.325Z,96840.00
2023-02-20T02:01:50.424Z,96834.00
2023-02-20T02:02:50.339Z,96828.00
2023-02-20T02:03:50.354Z,96826.00
2023-02-20T02:04:50.403Z,96828.00
2023-02-20T02:05:49.412Z,96832.00
2023-02-20T02:06:50.441Z,96832.00
2023-02-20T02:07:49.518Z,96834.00
2023-02-20T02:08:50.506Z,96834.00
2023-02-20T02:09:50.529Z,96834.00
2023-02-20T02:10:50.556Z,96830.00
2023-02-20T02:11:50.573Z,96826.00
2023-02-20T02:12:49.626Z,96823.00
2023-02-20T02:13:50.631Z,96826.00
2023-02-20T02:14:50.662Z,96830.00
2023-02-20T02:15:49.735Z,96836.00
2023-02-20T02:16:49.708Z,96834.00
2023-02-20T02:17:50.744Z,96838.00
2023-02-20T02:18:50.759Z,96836.00
2023-02-20T02:19:50.808Z,96836.00
2023-02-20T02:20:49.802Z,96834.00
2023-02-20T02:21:50.835Z,96836.00
2023-02-20T02:22:49.848Z,96836.00
2023-02-20T02:23:50.889Z,96838.00
2023-02-20T02:24:49.915Z,96840.00
2023-02-20T02:25:50.950Z,96840.00
2023-02-20T02:26:50.974Z,96840.00
2023-02-20T02:27:50.977Z,96840.00
2023-02-20T02:28:51.051Z,96836.00
2023-02-20T02:29:50.045Z,96834.00
2023-02-20T02:30:51.135Z,96834.00
2023-02-20T02:31:51.164Z,96832.00
2023-02-20T02:32:51.123Z,96834.00
2023-02-20T02:33:51.180Z,96838.00
2023-02-20T02:34:51.175Z,96842.00
2023-02-20T02:35:51.208Z,96842.00
2023-02-20T02:36:50.236Z,96842.00
2023-02-20T02:37:51.262Z,96842.00
2023-02-20T02:38:50.304Z,96844.00
2023-02-20T02:39:51.302Z,96840.00
2023-02-20T02:40:51.342Z,96840.00
2023-02-20T02:41:51.370Z,96838.00
2023-02-20T02:42:51.387Z,96834.00
2023-02-20T02:43:51.432Z,96828.00
2023-02-20T02:44:51.466Z,96824.00
2023-02-20T02:45:51.538Z,96823.00
2023-02-20T02:46:51.540Z,96823.00
2023-02-20T02:47:50.579Z,96823.00
2023-02-20T02:48:51.615Z,96823.00
2023-02-20T02:49:50.643Z,96821.00
2023-02-20T02:50:51.695Z,96824.00
2023-02-20T02:51:51.725Z,96824.00
2023-02-20T02:52:51.751Z,96826.00
2023-02-20T02:53:51.793Z,96828.00
2023-02-20T02:54:51.841Z,96834.00
2023-02-20T02:55:51.862Z,96834.00
2023-02-20T02:56:51.885Z,96834.00
2023-02-20T02:57:50.931Z,96828.00
2023-02-20T02:58:50.957Z,96830.00
2023-02-20T02:59:51.991Z,96830.00
2023-02-20T03:00:51.116Z,96826.00
2023-02-20T03:01:52.072Z,96826.00
2023-02-20T03:02:52.142Z,96823.00
2023-02-20T03:03:52.118Z,96824.00
2023-02-20T03:04:52.171Z,96823.00
2023-02-20T03:05:52.204Z,96824.00
2023-02-20T03:06:52.225Z,96824.00
2023-02-20T03:07:52.265Z,96826.00
2023-02-20T03:08:52.307Z,96824.00
2023-02-20T03:09:52.351Z,96824.00
2023-02-20T03:10:51.386Z,96823.00
2023-02-20T03:11:51.394Z,96821.00
2023-02-20T03:12:52.425Z,96821.00
2023-02-20T03:13:51.463Z,96823.00
2023-02-20T03:14:52.503Z,96828.00
2023-02-20T03:15:51.534Z,96830.00
2023-02-20T03:16:52.577Z,96832.00
2023-02-20T03:17:52.618Z,96836.00
2023-02-20T03:18:52.644Z,96838.00
2023-02-20T03:19:52.694Z,96838.00
2023-02-20T03:20:52.739Z,96838.00
2023-02-20T03:21:52.768Z,96838.00
2023-02-20T03:22:52.795Z,96836.00
2023-02-20T03:23:52.842Z,96838.00
2023-02-20T03:24:52.879Z,96838.00
2023-02-20T03:25:52.915Z,96842.00
2023-02-20T03:26:51.986Z,96844.00
2023-02-20T03:27:52.991Z,96848.00
2023-02-20T03:28:52.029Z,96848.00
2023-02-20T03:29:53.052Z,96844.00
2023-02-20T03:30:53.095Z,96844.00
2023-02-20T03:31:52.201Z,96844.00
2023-02-20T03:32:53.158Z,96842.00
2023-02-20T03:33:52.221Z,96842.00
2023-02-20T03:34:53.254Z,96842.00
2023-02-20T03:35:53.265Z,96842.00
2023-02-20T03:36:53.292Z,96846.00
2023-02-20T03:37:53.338Z,96842.00
2023-02-20T03:38:53.368Z,96848.00
2023-02-20T03:39:53.405Z,96846.00
2023-02-20T03:40:52.437Z,96844.00
2023-02-20T03:41:53.470Z,96844.00
2023-02-20T03:42:53.533Z,96850.00
2023-02-20T03:43:53.532Z,96852.00
2023-02-20T03:44:53.562Z,96854.00
2023-02-20T03:45:53.624Z,96852.00
2023-02-20T03:46:52.636Z,96856.00
2023-02-20T03:47:53.689Z,96852.00
2023-02-20T03:48:53.716Z,96850.00
2023-02-20T03:49:53.766Z,96856.00
2023-02-20T03:50:53.780Z,96860.00
2023-02-20T03:51:53.823Z,96858.00
2023-02-20T03:52:52.863Z,96858.00
2023-02-20T03:53:54.249Z,96858.00
2023-02-20T03:54:52.970Z,96856.00
2023-02-20T03:55:54.495Z,96856.00
2023-02-20T03:56:54.363Z,96858.00
2023-02-20T03:57:53.601Z,96862.00
2023-02-20T03:58:54.273Z,96858.00
2023-02-20T03:59:54.217Z,96860.00
2023-02-20T04:00:54.458Z,96860.00
2023-02-20T04:01:54.220Z,96862.00
2023-02-20T04:02:54.338Z,96858.00
2023-02-20T04:03:54.285Z,96856.00
2023-02-20T04:04:53.325Z,96854.00
2023-02-20T04:05:54.347Z,96854.00
2023-02-20T04:06:54.398Z,96856.00
2023-02-20T04:07:54.418Z,96858.00
2023-02-20T04:08:54.450Z,96858.00
2023-02-20T04:09:54.493Z,96860.00
2023-02-20T04:10:54.526Z,96860.00
2023-02-20T04:11:53.576Z,96862.00
2023-02-20T04:12:54.592Z,96862.00
2023-02-20T04:13:54.653Z,96866.00
2023-02-20T04:14:54.679Z,96864.00
2023-02-20T04:15:54.692Z,96866.00
2023-02-20T04:16:53.782Z,96870.00
2023-02-20T04:17:54.765Z,96871.00
2023-02-20T04:18:54.813Z,96871.00
2023-02-20T04:19:53.841Z,96871.00
2023-02-20T04:20:54.876Z,96871.00
2023-02-20T04:21:54.913Z,96870.00
2023-02-20T04:22:53.954Z,96871.00
2023-02-20T04:23:54.984Z,96871.00
2023-02-20T04:24:55.030Z,96873.00
2023-02-20T04:25:54.068Z,96873.00
2023-02-20T04:26:54.103Z,96875.00
2023-02-20T04:27:55.144Z,96875.00
2023-02-20T04:28:54.167Z,96877.00
2023-02-20T04:29:55.186Z,96877.00
2023-02-20T04:30:55.287Z,96877.00
2023-02-20T04:31:55.296Z,96877.00
2023-02-20T04:32:55.293Z,96877.00
2023-02-20T04:33:54.341Z,96875.00
2023-02-20T04:34:55.397Z,96873.00
2023-02-20T04:35:55.407Z,96873.00
2023-02-20T04:36:55.453Z,96873.00
2023-02-20T04:37:55.528Z,96875.00
2023-02-20T04:38:55.545Z,96877.00
2023-02-20T04:39:55.553Z,96877.00
2023-02-20T04:40:55.595Z,96877.00
2023-02-20T04:41:55.644Z,96873.00
2023-02-20T04:42:54.655Z,96875.00
2023-02-20T04:43:55.696Z,96871.00
2023-02-20T04:44:55.745Z,96870.00
2023-02-20T04:45:55.863Z,96871.00
2023-02-20T04:46:55.818Z,96873.00
2023-02-20T04:47:55.853Z,96870.00
2023-02-20T04:48:54.869Z,96871.00
2023-02-20T04:49:55.916Z,96873.00
2023-02-20T04:50:55.931Z,96879.00
2023-02-20T04:51:55.965Z,96875.00
2023-02-20T04:52:55.010Z,96877.00
2023-02-20T04:53:56.048Z,96877.00
2023-02-20T04:54:56.081Z,96877.00
2023-02-20T04:55:56.121Z,96881.00
2023-02-20T04:56:56.167Z,96885.00
2023-02-20T04:57:56.218Z,96885.00
2023-02-20T04:58:56.265Z,96889.00
2023-02-20T04:59:56.303Z,96891.00
2023-02-20T05:00:55.319Z,96893.00
2023-02-20T05:01:56.419Z,96893.00
2023-02-20T05:02:56.416Z,96889.00
2023-02-20T05:03:55.450Z,96885.00
2023-02-20T05:04:56.485Z,96885.00
2023-02-20T05:05:55.516Z,96887.00
2023-02-20T05:06:56.589Z,96887.00
2023-02-20T05:07:56.598Z,96885.00
2023-02-20T05:08:55.634Z,96885.00
2023-02-20T05:09:56.671Z,96883.00
2023-02-20T05:10:56.716Z,96883.00
2023-02-20T05:11:56.806Z,96881.00
2023-02-20T05:12:56.828Z,96881.00
2023-02-20T05:13:55.854Z,96879.00
2023-02-20T05:14:56.881Z,96881.00
2023-02-20T05:15:56.956Z,96879.00
2023-02-20T05:16:55.969Z,96879.00
2023-02-20T05:17:57.002Z,96881.00
2023-02-20T05:18:56.325Z,96881.00
2023-02-20T05:19:56.092Z,96885.00
2023-02-20T05:20:57.116Z,96881.00
2023-02-20T05:21:57.170Z,96877.00
2023-02-20T05:22:56.220Z,96877.00
2023-02-20T05:23:57.290Z,96873.00
2023-02-20T05:24:57.283Z,96879.00
2023-02-20T05:25:57.336Z,96875.00
2023-02-20T05:26:57.372Z,96877.00
2023-02-20T05:27:56.400Z,96879.00
2023-02-20T05:28:57.475Z,96879.00
2023-02-20T05:29:57.509Z,96879.00
2023-02-20T05:30:56.556Z,96881.00
2023-02-20T05:31:56.585Z,96885.00
2023-02-20T05:32:57.618Z,96887.00
2023-02-20T05:33:57.677Z,96891.00
2023-02-20T05:34:57.763Z,96891.00
2023-02-20T05:35:58.051Z,96891.00
2023-02-20T05:36:56.971Z,96891.00
2023-02-20T05:37:57.012Z,96891.00
2023-02-20T05:38:57.897Z,96895.00
2023-02-20T05:39:57.956Z,96895.00
2023-02-20T05:40:57.060Z,96895.00
2023-02-20T05:41:57.238Z,96895.00
2023-02-20T05:42:57.096Z,96899.00
2023-02-20T05:43:58.155Z,96899.00
2023-02-20T05:44:58.209Z,96901.00
2023-02-20T05:45:58.260Z,96897.00
2023-02-20T05:46:58.360Z,96897.00
2023-02-20T05:47:58.354Z,96897.00
2023-02-20T05:48:58.436Z,96899.00
2023-02-20T05:49:58.451Z,96899.00
2023-02-20T05:50:58.511Z,96899.00
2023-02-20T05:51:58.546Z,96899.00
2023-02-20T05:52:58.603Z,96897.00
2023-02-20T05:53:58.649Z,96897.00
2023-02-20T05:54:57.679Z,96897.00
2023-02-20T05:55:57.751Z,96899.00
2023-02-20T05:56:57.776Z,96899.00
2023-02-20T05:57:58.813Z,96897.00
2023-02-20T05:58:57.857Z,96899.00
2023-02-20T05:59:58.894Z,96899.00
2023-02-20T06:00:58.934Z,96897.00
2023-02-20T06:01:59.362Z,96897.00
2023-02-20T06:02:59.047Z,96895.00
2023-02-20T06:03:29.846Z,96935.00
2023-02-20T06:03:59.142Z,96893.00
2023-02-20T06:04:30.738Z,96945.00
2023-02-20T06:04:59.167Z,96895.00
2023-02-20T06:05:30.568Z,96949.00
2023-02-20T06:05:59.176Z,96901.00
2023-02-20T06:06:30.616Z,96949.00
2023-02-20T06:06:58.243Z,96899.00
2023-02-20T06:07:30.627Z,96947.00
2023-02-20T06:07:59.285Z,96899.00
2023-02-20T06:08:31.089Z,96947.00
2023-02-20T06:08:59.329Z,96901.00
2023-02-20T06:09:30.510Z,96949.00
2023-02-20T06:09:59.405Z,96901.00
2023-02-20T06:10:29.574Z,96945.00
2023-02-20T06:10:58.456Z,96901.00
2023-02-20T06:11:29.566Z,96949.00
2023-02-20T06:11:58.497Z,96899.00
2023-02-20T06:12:29.573Z,96945.00
2023-02-20T06:12:58.564Z,96895.00
2023-02-20T06:13:30.515Z,96937.00
2023-02-20T06:13:58.627Z,96897.00
2023-02-20T06:14:29.535Z,96937.00
2023-02-20T06:14:59.721Z,96897.00
2023-02-20T06:15:30.524Z,96947.00
2023-02-20T06:15:58.783Z,96899.00
2023-02-20T06:16:30.496Z,96933.00
2023-02-20T06:16:59.749Z,96897.00
2023-02-20T06:17:30.476Z,96931.00
2023-02-20T06:17:59.806Z,96895.00
2023-02-20T06:18:30.499Z,96937.00
2023-02-20T06:18:59.901Z,96895.00
2023-02-20T06:19:30.550Z,96947.00
2023-02-20T06:19:59.944Z,96897.00
2023-02-20T06:20:30.467Z,96945.00
2023-02-20T06:20:58.990Z,96897.00
2023-02-20T06:21:30.435Z,96945.00
2023-02-20T06:21:59.060Z,96899.00
2023-02-20T06:22:30.398Z,96949.00
2023-02-20T06:23:00.110Z,96903.00
2023-02-20T06:23:30.492Z,96953.00
2023-02-20T06:24:00.153Z,96903.00
2023-02-20T06:24:30.396Z,96957.00
2023-02-20T06:25:00.184Z,96911.00
2023-02-20T06:25:30.414Z,96961.00
2023-02-20T06:26:00.241Z,96911.00
2023-02-20T06:26:29.413Z,96957.00
2023-02-20T06:27:00.284Z,96909.00
2023-02-20T06:27:30.478Z,96955.00
2023-02-20T06:28:00.348Z,96907.00
2023-02-20T06:28:29.504Z,96955.00
2023-02-20T06:28:59.383Z,96909.00
2023-02-20T06:29:30.437Z,96953.00
2023-02-20T06:29:59.460Z,96909.00
2023-02-20T06:30:30.542Z,96957.00
2023-02-20T06:31:02.039Z,96909.00
2023-02-20T06:31:30.555Z,96959.00
2023-02-20T06:32:00.616Z,96913.00
2023-02-20T06:32:30.531Z,96961.00
2023-02-20T06:32:59.489Z,96913.00
2023-02-20T06:33:30.518Z,96959.00
2023-02-20T06:33:59.473Z,96913.00
2023-02-20T06:34:30.551Z,96963.00
2023-02-20T06:34:59.506Z,96915.00
2023-02-20T06:35:29.523Z,96959.00
2023-02-20T06:36:00.497Z,96911.00
2023-02-20T06:36:30.552Z,96957.00
2023-02-20T06:36:59.458Z,96911.00
2023-02-20T06:37:29.491Z,96963.00
2023-02-20T06:37:59.486Z,96913.00
2023-02-20T06:38:30.570Z,96961.00
2023-02-20T06:39:00.445Z,96913.00
2023-02-20T06:39:29.558Z,96965.00
2023-02-20T06:40:00.459Z,96913.00
2023-02-20T06:40:30.576Z,96961.00
2023-02-20T06:41:00.457Z,96917.00
2023-02-20T06:41:30.616Z,96965.00
2023-02-20T06:42:00.437Z,96917.00
2023-02-20T06:42:30.634Z,96970.00
2023-02-20T06:43:00.436Z,96920.00
2023-02-20T06:43:30.764Z,96968.00
2023-02-20T06:43:59.421Z,96922.00
2023-02-20T06:44:29.741Z,96972.00
2023-02-20T06:45:00.465Z,96924.00
2023-02-20T06:45:29.734Z,96974.00
2023-02-20T06:46:00.391Z,96928.00
2023-02-20T06:46:30.837Z,96974.00
2023-02-20T06:47:00.477Z,96924.00
2023-02-20T06:47:29.812Z,96974.00
2023-02-20T06:47:59.412Z,96928.00
2023-02-20T06:48:29.827Z,96974.00
2023-02-20T06:49:00.398Z,96926.00
2023-02-20T06:49:30.913Z,96976.00
2023-02-20T06:49:59.393Z,96926.00
2023-02-20T06:50:30.600Z,96976.00
2023-02-20T06:50:59.382Z,96930.00
2023-02-20T06:51:30.037Z,96978.00
2023-02-20T06:52:02.516Z,96930.00
2023-02-20T06:53:00.379Z,96930.00
2023-02-20T06:54:00.380Z,96932.00
2023-02-20T06:55:00.370Z,96932.00
2023-02-20T06:56:00.356Z,96930.00
2023-02-20T06:56:47.975Z,96980.00
2023-02-20T06:57:00.350Z,96932.00
2023-02-20T06:57:47.960Z,96984.00
2023-02-20T06:58:00.376Z,96938.00
2023-02-20T06:58:49.358Z,96988.00
2023-02-20T06:59:00.325Z,96940.00
2023-02-20T06:59:49.014Z,96986.00
2023-02-20T07:00:00.326Z,96944.00
2023-02-20T07:01:00.387Z,96944.00
2023-02-20T07:02:00.361Z,96942.00
2023-02-20T07:03:00.305Z,96940.00
2023-02-20T07:03:59.292Z,96942.00
2023-02-20T07:04:59.284Z,96940.00
2023-02-20T07:05:36.750Z,96986.00
2023-02-20T07:06:00.285Z,96942.00
2023-02-20T07:06:37.610Z,96978.00
2023-02-20T07:06:59.282Z,96938.00
2023-02-20T07:07:37.608Z,96982.00
2023-02-20T07:07:59.300Z,96936.00
2023-02-20T07:08:37.769Z,96980.00
2023-02-20T07:09:00.240Z,96936.00
2023-02-20T07:10:00.250Z,96938.00
2023-02-20T07:10:56.307Z,96984.00
2023-02-20T07:11:00.236Z,96934.00
2023-02-20T07:12:00.233Z,96936.00
2023-02-20T07:12:59.249Z,96938.00
2023-02-20T07:13:59.221Z,96938.00
2023-02-20T07:14:59.226Z,96942.00
2023-02-20T07:15:59.220Z,96944.00
2023-02-20T07:17:00.187Z,96958.00
2023-02-20T07:17:59.187Z,96962.00
2023-02-20T07:18:33.586Z,96998.00
2023-02-20T07:18:59.168Z,96962.00
2023-02-20T07:20:00.198Z,96966.00
2023-02-20T07:21:00.222Z,96966.00
2023-02-20T07:22:00.289Z,96960.00
2023-02-20T07:23:00.326Z,96960.00
2023-02-20T07:24:00.405Z,96948.00
2023-02-20T07:25:00.449Z,96956.00
2023-02-20T07:26:00.477Z,96946.00
2023-02-20T07:27:00.530Z,96946.00
2023-02-20T07:27:27.157Z,96990.00
2023-02-20T07:27:59.571Z,96946.00
2023-02-20T07:29:00.658Z,96944.00
2023-02-20T07:30:00.661Z,96944.00
2023-02-20T07:30:59.716Z,96944.00
2023-02-20T07:31:59.885Z,96944.00
2023-02-20T07:32:38.259Z,96992.00
2023-02-20T07:33:00.812Z,96948.00
2023-02-20T07:34:00.835Z,96948.00
2023-02-20T07:35:03.692Z,96994.00
2023-02-20T07:35:06.058Z,96946.00
2023-02-20T07:36:00.866Z,96946.00
2023-02-20T07:37:00.861Z,96956.00
2023-02-20T07:38:00.853Z,96956.00
2023-02-20T07:38:59.846Z,96960.00
2023-02-20T07:39:59.861Z,96958.00
2023-02-20T07:41:00.830Z,96958.00
2023-02-20T07:42:00.838Z,96958.00
2023-02-20T07:42:59.815Z,96960.00
2023-02-20T07:43:59.828Z,96962.00
2023-02-20T07:45:00.812Z,96958.00
2023-02-20T07:45:59.892Z,96956.00
2023-02-20T07:46:49.241Z,96990.00
2023-02-20T07:47:00.781Z,96946.00
2023-02-20T07:47:48.004Z,96992.00
2023-02-20T07:47:59.788Z,96948.00
2023-02-20T07:48:59.761Z,96944.00
2023-02-20T07:49:02.429Z,96990.00
2023-02-20T07:49:48.984Z,96990.00
2023-02-20T07:50:00.789Z,96946.00
2023-02-20T07:51:00.776Z,96956.00
2023-02-20T07:52:00.805Z,96948.00
2023-02-20T07:52:07.783Z,96992.00
2023-02-20T07:53:00.743Z,96948.00
2023-02-20T07:53:07.590Z,96990.00
2023-02-20T07:54:00.776Z,96944.00
2023-02-20T07:55:00.822Z,96942.00
2023-02-20T07:56:00.759Z,96942.00
2023-02-20T07:57:00.712Z,96940.00
2023-02-20T07:57:46.805Z,96986.00
2023-02-20T07:57:59.730Z,96942.00
2023-02-20T07:59:00.917Z,96934.00
2023-02-20T08:00:00.723Z,96934.00
2023-02-20T08:01:00.713Z,96932.00
2023-02-20T08:02:00.715Z,96930.00
2023-02-20T08:03:00.673Z,96928.00
2023-02-20T08:04:00.728Z,96922.00
2023-02-20T08:04:59.683Z,96924.00
2023-02-20T08:06:00.677Z,96922.00
2023-02-20T08:07:00.670Z,96922.00
2023-02-20T08:08:00.715Z,96924.00
2023-02-20T08:09:00.736Z,96926.00
2023-02-20T08:09:44.587Z,96972.00
2023-02-20T08:09:59.784Z,96930.00
2023-02-20T08:11:08.653Z,96928.00
2023-02-20T08:12:00.846Z,96930.00
2023-02-20T08:13:00.827Z,96926.00
2023-02-20T08:14:00.805Z,96926.00
2023-02-20T08:15:00.805Z,96932.00
2023-02-20T08:16:00.855Z,96930.00
2023-02-20T08:17:00.788Z,96936.00
2023-02-20T08:18:00.795Z,96936.00
2023-02-20T08:19:00.838Z,96938.00
2023-02-20T08:20:00.842Z,96940.00
2023-02-20T08:20:59.757Z,96944.00
2023-02-20T08:22:00.756Z,96942.00
2023-02-20T08:23:00.796Z,96942.00
2023-02-20T08:24:00.752Z,96944.00
2023-02-20T08:25:00.742Z,96946.00
2023-02-20T08:25:59.737Z,96956.00
2023-02-20T08:27:00.727Z,96958.00
2023-02-20T08:27:59.737Z,96956.00
2023-02-20T08:29:00.777Z,96960.00
2023-02-20T08:30:00.713Z,96958.00
2023-02-20T08:30:59.698Z,96958.00
2023-02-20T08:32:00.886Z,96958.00
2023-02-20T08:32:59.677Z,96960.00
2023-02-20T08:33:59.697Z,96958.00
2023-02-20T08:35:00.760Z,96956.00
2023-02-20T08:36:01.631Z,96960.00
2023-02-20T08:36:28.273Z,96998.00
2023-02-20T08:36:59.646Z,96956.00
2023-02-20T08:38:02.733Z,96960.00
2023-02-20T08:38:49.482Z,96996.00
2023-02-20T08:39:00.636Z,96960.00
2023-02-20T08:40:00.715Z,96958.00
2023-02-20T08:41:00.616Z,96960.00
2023-02-20T08:41:07.779Z,96998.00
2023-02-20T08:42:00.623Z,96956.00
2023-02-20T08:43:00.644Z,96956.00
2023-02-20T08:44:00.620Z,96956.00
2023-02-20T08:45:00.632Z,96956.00
2023-02-20T08:45:47.166Z,96992.00
2023-02-20T08:46:00.659Z,96948.00
2023-02-20T08:46:47.637Z,96994.00
2023-02-20T08:47:00.639Z,96956.00
2023-02-20T08:48:00.580Z,96948.00
2023-02-20T08:49:00.593Z,96946.00
2023-02-20T08:49:53.745Z,96988.00
2023-02-20T08:50:00.824Z,96948.00
2023-02-20T08:50:54.425Z,96982.00
2023-02-20T08:51:00.585Z,96942.00
2023-02-20T08:51:54.424Z,96982.00
2023-02-20T08:52:00.556Z,96938.00
2023-02-20T08:52:54.136Z,96980.00
2023-02-20T08:52:59.535Z,96938.00
2023-02-20T08:53:54.120Z,96978.00
2023-02-20T08:54:00.542Z,96936.00
2023-02-20T08:54:53.009Z,96976.00
2023-02-20T08:55:00.549Z,96934.00
2023-02-20T08:55:54.010Z,96978.00
2023-02-20T08:56:00.525Z,96932.00
2023-02-20T08:56:54.106Z,96978.00
2023-02-20T08:56:59.503Z,96934.00
2023-02-20T08:58:00.497Z,96930.00
2023-02-20T08:59:00.533Z,96932.00
2023-02-20T09:00:00.506Z,96932.00
2023-02-20T09:01:00.502Z,96930.00
2023-02-20T09:01:59.472Z,96930.00
2023-02-20T09:03:00.605Z,96928.00
2023-02-20T09:03:59.458Z,96926.00
2023-02-20T09:04:32.697Z,96972.00
2023-02-20T09:05:00.485Z,96926.00
2023-02-20T09:05:32.773Z,96970.00
2023-02-20T09:06:00.472Z,96928.00
2023-02-20T09:06:33.770Z,96972.00
2023-02-20T09:07:00.436Z,96928.00
2023-02-20T09:07:33.496Z,96974.00
2023-02-20T09:08:00.434Z,96928.00
2023-02-20T09:08:33.538Z,96970.00
2023-02-20T09:09:00.454Z,96932.00
2023-02-20T09:09:33.323Z,96972.00
2023-02-20T09:10:00.438Z,96934.00
2023-02-20T09:10:33.361Z,96974.00
2023-02-20T09:11:00.414Z,96934.00
2023-02-20T09:11:33.403Z,96976.00
2023-02-20T09:12:00.423Z,96936.00
2023-02-20T09:12:33.496Z,96976.00
2023-02-20T09:13:00.418Z,96934.00
2023-02-20T09:13:33.418Z,96976.00
2023-02-20T09:14:00.402Z,96932.00
2023-02-20T09:14:33.488Z,96976.00
2023-02-20T09:15:00.460Z,96934.00
2023-02-20T09:15:33.394Z,96974.00
2023-02-20T09:15:59.396Z,96932.00
2023-02-20T09:16:33.438Z,96968.00
2023-02-20T09:17:00.401Z,96930.00
2023-02-20T09:17:33.241Z,96970.00
2023-02-20T09:18:00.371Z,96930.00
2023-02-20T09:18:33.254Z,96968.00
2023-02-20T09:19:00.387Z,96930.00
2023-02-20T09:19:33.259Z,96970.00
2023-02-20T09:20:00.353Z,96932.00
2023-02-20T09:20:33.352Z,96976.00
2023-02-20T09:21:00.376Z,96932.00
2023-02-20T09:21:33.317Z,96972.00
2023-02-20T09:22:00.350Z,96934.00
2023-02-20T09:22:33.226Z,96972.00
2023-02-20T09:23:00.325Z,96932.00
2023-02-20T09:23:32.273Z,96970.00
2023-02-20T09:24:00.345Z,96928.00
2023-02-20T09:24:33.182Z,96970.00
2023-02-20T09:24:59.330Z,96928.00
2023-02-20T09:25:33.330Z,96967.00
2023-02-20T09:26:00.379Z,96926.00
2023-02-20T09:26:33.239Z,96965.00
2023-02-20T09:27:00.307Z,96920.00
2023-02-20T09:27:32.163Z,96963.00
2023-02-20T09:28:00.304Z,96922.00
2023-02-20T09:28:33.172Z,96959.00
2023-02-20T09:29:00.311Z,96917.00
2023-02-20T09:29:33.181Z,96957.00
2023-02-20T09:29:59.355Z,96913.00
2023-02-20T09:30:33.288Z,96957.00
2023-02-20T09:30:59.275Z,96913.00
2023-02-20T09:31:33.240Z,96953.00
2023-02-20T09:32:00.442Z,96913.00
2023-02-20T09:32:32.312Z,96953.00
2023-02-20T09:33:00.367Z,96911.00
2023-02-20T09:33:33.200Z,96953.00
2023-02-20T09:34:00.358Z,96911.00
2023-02-20T09:34:33.152Z,96947.00
2023-02-20T09:34:59.399Z,96907.00
2023-02-20T09:35:33.222Z,96947.00
2023-02-20T09:36:00.485Z,96905.00
2023-02-20T09:36:32.353Z,96945.00
2023-02-20T09:37:00.527Z,96899.00
2023-02-20T09:37:33.420Z,96937.00
2023-02-20T09:38:00.563Z,96897.00
2023-02-20T09:38:33.457Z,96931.00
2023-02-20T09:39:00.645Z,96891.00
2023-02-20T09:39:33.410Z,96931.00
2023-02-20T09:40:00.694Z,96893.00
2023-02-20T09:40:33.473Z,96931.00
2023-02-20T09:40:59.740Z,96899.00
2023-02-20T09:41:33.442Z,96937.00
2023-02-20T09:42:00.803Z,96901.00
2023-02-20T09:42:33.517Z,96935.00
2023-02-20T09:42:59.858Z,96899.00